createdAt,value
2023-04-12T00:00:35.396Z,1.70
2023-04-12T00:03:07.901Z,1.40
2023-04-12T00:05:36.477Z,1.55
2023-04-12T00:08:05.505Z,1.33
2023-04-12T00:10:34.032Z,1.50
2023-04-12T00:13:02.774Z,1.58
2023-04-12T00:15:32.019Z,1.27
2023-04-12T00:18:02.476Z,1.35
2023-04-12T00:20:31.073Z,1.27
2023-04-12T00:23:00.332Z,1.42
2023-04-12T00:25:28.927Z,1.63
2023-04-12T00:27:57.204Z,0.85
2023-04-12T00:30:25.934Z,1.33
2023-04-12T00:32:54.740Z,1.67
2023-04-12T00:35:25.536Z,1.35
2023-04-12T00:37:53.961Z,1.50
2023-04-12T00:40:22.587Z,1.30
2023-04-12T00:42:51.139Z,1.45
2023-04-12T00:45:19.549Z,1.58
2023-04-12T00:47:48.160Z,1.60
2023-04-12T00:50:16.794Z,1.08
2023-04-12T00:52:47.057Z,1.45
2023-04-12T00:55:16.342Z,1.77
2023-04-12T00:57:45.013Z,1.00
2023-04-12T01:00:14.243Z,1.20
2023-04-12T01:02:48.053Z,1.27
2023-04-12T01:05:22.395Z,1.27
2023-04-12T01:08:06.651Z,0.93
2023-04-12T01:10:45.231Z,1.27
2023-04-12T01:13:23.015Z,1.20
2023-04-12T01:15:59.165Z,1.30
2023-04-12T01:18:32.292Z,1.33
2023-04-12T01:21:08.316Z,1.50
2023-04-12T01:23:53.630Z,1.10
2023-04-12T01:26:35.388Z,0.88
2023-04-12T01:29:11.745Z,0.98
2023-04-12T01:31:43.484Z,1.27
2023-04-12T01:34:15.629Z,0.90
2023-04-12T01:36:47.726Z,1.25
2023-04-12T01:39:16.757Z,0.80
2023-04-12T01:41:49.116Z,0.80
2023-04-12T01:44:20.226Z,0.80
2023-04-12T01:46:49.945Z,1.05
2023-04-12T01:49:19.760Z,0.98
2023-04-12T01:51:54.056Z,0.90
2023-04-12T01:54:27.676Z,0.70
2023-04-12T01:56:59.411Z,1.10
2023-04-12T01:59:33.784Z,0.80
2023-04-12T02:02:04.110Z,0.80
2023-04-12T02:04:35.413Z,0.80
2023-04-12T02:07:04.389Z,1.08
2023-04-12T02:09:38.067Z,1.05
2023-04-12T02:12:07.601Z,1.20
2023-04-12T02:14:37.994Z,1.08
2023-04-12T02:17:08.749Z,1.15
2023-04-12T02:19:37.340Z,1.10
2023-04-12T02:22:06.491Z,0.90
2023-04-12T02:24:34.865Z,1.30
2023-04-12T02:27:04.172Z,1.27
2023-04-12T02:29:32.835Z,0.75
2023-04-12T02:32:02.707Z,0.68
2023-04-12T02:34:34.471Z,1.10
2023-04-12T02:37:03.956Z,0.93
2023-04-12T02:39:34.747Z,0.77
2023-04-12T02:42:03.176Z,0.80
2023-04-12T02:44:31.804Z,1.10
2023-04-12T02:47:00.179Z,0.93
2023-04-12T02:49:30.156Z,0.85
2023-04-12T02:51:58.942Z,0.93
2023-04-12T02:54:27.725Z,1.00
2023-04-12T02:56:56.071Z,0.93
2023-04-12T02:59:25.532Z,0.60
2023-04-12T03:01:54.178Z,0.80
2023-04-12T03:04:30.464Z,0.80
2023-04-12T03:07:00.728Z,0.88
2023-04-12T03:09:29.131Z,0.68
2023-04-12T03:11:57.605Z,1.20
2023-04-12T03:14:26.091Z,0.88
2023-04-12T03:16:54.565Z,1.15
2023-04-12T03:19:23.362Z,1.33
2023-04-12T03:21:52.153Z,1.02
2023-04-12T03:24:22.376Z,0.80
2023-04-12T03:26:52.395Z,0.80
2023-04-12T03:29:20.917Z,0.70
2023-04-12T03:31:49.521Z,1.05
2023-04-12T03:34:18.031Z,0.95
2023-04-12T03:36:46.825Z,1.02
2023-04-12T03:39:15.269Z,0.65
2023-04-12T03:41:45.638Z,1.20
2023-04-12T03:44:14.633Z,1.27
2023-04-12T03:46:43.390Z,1.10
2023-04-12T03:49:12.155Z,1.50
2023-04-12T03:51:43.231Z,0.93
2023-04-12T03:54:13.203Z,0.93
2023-04-12T03:56:43.227Z,1.10
2023-04-12T03:59:14.917Z,1.00
2023-04-12T04:01:43.713Z,1.00
2023-04-12T04:04:12.339Z,1.17
2023-04-12T04:06:41.306Z,1.00
2023-04-12T04:09:10.096Z,1.23
2023-04-12T04:11:38.641Z,1.55
2023-04-12T04:14:07.868Z,1.25
2023-04-12T04:16:38.140Z,1.20
2023-04-12T04:19:06.767Z,1.20
2023-04-12T04:21:35.503Z,1.02
2023-04-12T04:24:04.353Z,1.20
2023-04-12T04:26:33.981Z,1.38
2023-04-12T04:29:03.894Z,0.93
2023-04-12T04:31:36.741Z,1.00
2023-04-12T04:34:10.511Z,1.40
2023-04-12T04:36:40.281Z,1.40
2023-04-12T04:39:09.483Z,1.35
2023-04-12T04:41:39.765Z,1.00
2023-04-12T04:44:10.879Z,1.23
2023-04-12T04:46:40.238Z,1.30
2023-04-12T04:49:10.071Z,1.00
2023-04-12T04:51:38.544Z,1.08
2023-04-12T04:54:07.403Z,1.38
2023-04-12T04:56:35.950Z,1.75
2023-04-12T04:59:04.559Z,2.13
2023-04-12T05:01:36.773Z,1.10
2023-04-12T05:04:05.604Z,1.23
2023-04-12T05:06:35.775Z,1.20
2023-04-12T05:09:05.531Z,1.48
2023-04-12T05:11:35.209Z,1.25
2023-04-12T05:14:03.656Z,1.23
2023-04-12T05:16:32.214Z,1.75
2023-04-12T05:19:00.723Z,1.67
2023-04-12T05:21:29.646Z,1.88
2023-04-12T05:23:59.681Z,1.73
2023-04-12T05:26:28.438Z,1.35
2023-04-12T05:28:57.330Z,1.50
2023-04-12T05:31:33.631Z,1.75
2023-04-12T05:34:02.279Z,2.05
2023-04-12T05:36:30.831Z,1.60
2023-04-12T05:39:00.531Z,1.60
2023-04-12T05:41:29.021Z,1.92
2023-04-12T05:43:57.675Z,1.92
2023-04-12T05:46:26.316Z,2.10
2023-04-12T05:48:55.002Z,1.90
2023-04-12T05:51:37.732Z,1.75
2023-04-12T05:54:10.939Z,2.00
2023-04-12T05:56:41.130Z,2.22
2023-04-12T05:59:11.887Z,1.92
2023-04-12T06:01:43.012Z,2.17
2023-04-12T06:04:12.020Z,1.90
2023-04-12T06:06:40.413Z,2.13
2023-04-12T06:09:13.746Z,2.55
2023-04-12T06:11:42.151Z,2.50
2023-04-12T06:14:11.823Z,2.33
2023-04-12T06:16:42.006Z,2.72
2023-04-12T06:19:11.217Z,2.25
2023-04-12T06:21:39.873Z,2.75
2023-04-12T06:24:09.270Z,2.50
2023-04-12T06:26:40.368Z,1.92
2023-04-12T06:29:08.811Z,2.30
2023-04-12T06:31:37.192Z,2.15
2023-04-12T06:34:06.331Z,2.78
2023-04-12T06:36:36.043Z,2.40
2023-04-12T06:39:05.277Z,2.25
2023-04-12T06:41:34.570Z,2.28
2023-04-12T06:44:06.433Z,2.03
2023-04-12T06:46:36.082Z,2.08
2023-04-12T06:49:04.719Z,2.20
2023-04-12T06:51:34.755Z,2.20
2023-04-12T06:54:03.220Z,1.83
2023-04-12T06:56:32.046Z,1.90
2023-04-12T06:59:00.815Z,2.15
2023-04-12T07:01:30.866Z,2.45
2023-04-12T07:03:59.586Z,1.83
2023-04-12T07:06:29.042Z,1.75
2023-04-12T07:08:58.793Z,1.38
2023-04-12T07:11:28.593Z,1.65
2023-04-12T07:13:59.328Z,1.50
2023-04-12T07:16:27.904Z,1.67
2023-04-12T07:18:58.159Z,1.45
2023-04-12T07:21:27.787Z,1.40
2023-04-12T07:23:59.809Z,1.30
2023-04-12T07:26:28.432Z,1.35
2023-04-12T07:28:57.262Z,1.02
2023-04-12T07:31:26.028Z,1.00
2023-04-12T07:33:55.768Z,1.30
2023-04-12T07:36:27.698Z,1.33
2023-04-12T07:38:57.562Z,1.42
2023-04-12T07:41:26.669Z,1.85
2023-04-12T07:43:55.287Z,1.67
2023-04-12T07:46:24.247Z,1.20
2023-04-12T07:48:53.643Z,1.75
2023-04-12T07:51:22.081Z,1.40
2023-04-12T07:53:52.246Z,1.40
2023-04-12T07:56:20.771Z,1.35
2023-04-12T07:58:49.427Z,1.88
2023-04-12T08:01:17.727Z,1.40
2023-04-12T08:03:47.457Z,1.85
2023-04-12T08:06:16.044Z,1.45
2023-04-12T08:08:44.845Z,1.70
2023-04-12T08:11:14.893Z,1.48
2023-04-12T08:13:43.499Z,1.10
2023-04-12T08:16:13.382Z,1.30
2023-04-12T08:18:41.921Z,1.20
2023-04-12T08:21:10.708Z,1.60
2023-04-12T08:23:39.783Z,1.48
2023-04-12T08:26:08.408Z,1.33
2023-04-12T08:28:39.848Z,2.00
2023-04-12T08:31:09.596Z,1.30
2023-04-12T08:33:37.940Z,1.20
2023-04-12T08:36:07.569Z,1.60
2023-04-12T08:38:44.930Z,1.50
2023-04-12T08:41:15.545Z,1.40
2023-04-12T08:43:47.816Z,1.63
2023-04-12T08:46:17.252Z,1.70
2023-04-12T08:48:48.076Z,1.98
2023-04-12T08:51:19.006Z,1.60
2023-04-12T08:53:48.271Z,2.00
2023-04-12T08:56:19.996Z,1.58
2023-04-12T08:58:50.868Z,1.98
2023-04-12T09:01:21.745Z,1.67
2023-04-12T09:03:50.476Z,1.42
2023-04-12T09:06:19.102Z,1.63
2023-04-12T09:08:55.156Z,2.03
2023-04-12T09:11:26.327Z,1.70
2023-04-12T09:13:57.861Z,2.08
2023-04-12T09:16:37.214Z,2.10
2023-04-12T09:19:07.285Z,1.52
2023-04-12T09:21:36.901Z,1.50
2023-04-12T09:24:11.829Z,1.15
2023-04-12T09:26:42.694Z,1.48
2023-04-12T09:29:25.714Z,1.30
2023-04-12T09:31:59.759Z,1.40
2023-04-12T09:34:28.518Z,1.50
2023-04-12T09:36:57.968Z,1.23
2023-04-12T09:39:34.610Z,1.45
2023-04-12T09:42:14.893Z,1.42
2023-04-12T09:44:49.055Z,2.03
2023-04-12T09:47:17.897Z,1.80
2023-04-12T09:49:46.671Z,2.20
2023-04-12T09:52:17.059Z,2.70
2023-04-12T09:54:47.509Z,2.22
2023-04-12T09:57:21.293Z,2.38
2023-04-12T09:59:52.588Z,1.92
2023-04-12T10:02:28.539Z,2.22
2023-04-12T10:04:57.686Z,2.00
2023-04-12T10:07:27.661Z,1.88
2023-04-12T10:10:00.143Z,2.33
2023-04-12T10:12:28.908Z,1.40
2023-04-12T10:15:00.463Z,1.77
2023-04-12T10:17:29.155Z,1.25
2023-04-12T10:19:58.659Z,0.90
2023-04-12T10:22:27.117Z,1.30
2023-04-12T10:24:56.880Z,0.60
2023-04-12T10:27:28.956Z,0.90
2023-04-12T10:30:25.432Z,0.77
2023-04-12T10:33:17.135Z,0.98
2023-04-12T10:35:57.068Z,1.05
2023-04-12T10:38:27.780Z,1.10
2023-04-12T10:41:14.378Z,0.77
2023-04-12T10:43:43.574Z,0.90
2023-04-12T10:46:51.636Z,1.10
2023-04-12T10:49:21.910Z,1.40
2023-04-12T10:52:18.549Z,1.20
2023-04-12T10:54:48.065Z,1.25
2023-04-12T10:57:45.677Z,1.15
2023-04-12T11:00:16.281Z,1.02
2023-04-12T11:03:12.892Z,1.02
2023-04-12T11:06:16.165Z,1.10
2023-04-12T11:08:57.312Z,0.80
2023-04-12T11:11:28.537Z,0.98
2023-04-12T11:13:59.607Z,0.90
2023-04-12T11:16:28.556Z,1.10
2023-04-12T11:18:57.810Z,0.90
2023-04-12T11:21:27.933Z,1.50
2023-04-12T11:23:56.694Z,1.10
2023-04-12T11:26:25.751Z,1.05
2023-04-12T11:28:56.477Z,1.10
2023-04-12T11:31:25.657Z,1.02
2023-04-12T11:33:54.175Z,0.80
2023-04-12T11:36:22.952Z,0.88
2023-04-12T11:38:53.590Z,1.20
2023-04-12T11:41:22.236Z,1.10
2023-04-12T11:43:50.913Z,0.90
2023-04-12T11:46:20.935Z,1.17
2023-04-12T11:48:49.567Z,1.10
2023-04-12T11:51:25.236Z,0.80
2023-04-12T11:53:59.932Z,1.00
2023-04-12T11:56:32.349Z,0.90
2023-04-12T11:59:01.204Z,1.05
2023-04-12T12:01:32.136Z,0.80
2023-04-12T12:04:01.550Z,0.90
2023-04-12T12:06:31.815Z,1.02
2023-04-12T12:09:04.389Z,1.02
2023-04-12T12:11:33.353Z,1.33
2023-04-12T12:14:02.090Z,1.50
2023-04-12T12:16:32.041Z,1.15
2023-04-12T12:19:05.272Z,1.45
2023-04-12T12:21:34.111Z,1.20
2023-04-12T12:24:04.321Z,1.00
2023-04-12T12:26:33.206Z,1.00
2023-04-12T12:29:01.771Z,0.90
2023-04-12T12:31:30.906Z,1.00
2023-04-12T12:34:04.345Z,1.00
2023-04-12T12:36:39.271Z,0.98
2023-04-12T12:39:12.452Z,0.80
2023-04-12T12:41:41.945Z,0.98
2023-04-12T12:44:11.620Z,0.85
2023-04-12T12:46:53.445Z,0.95
2023-04-12T12:49:25.844Z,1.20
2023-04-12T12:51:54.406Z,1.05
2023-04-12T12:54:39.364Z,0.80
2023-04-12T12:57:10.019Z,0.70
2023-04-12T12:59:38.696Z,0.90
2023-04-12T13:02:07.638Z,0.82
2023-04-12T13:04:36.656Z,1.00
2023-04-12T13:07:05.257Z,0.70
2023-04-12T13:09:35.325Z,0.68
2023-04-12T13:12:04.374Z,0.73
2023-04-12T13:14:32.904Z,1.00
2023-04-12T13:17:01.538Z,0.80
2023-04-12T13:19:30.172Z,0.75
2023-04-12T13:21:58.502Z,0.50
2023-04-12T13:24:27.036Z,0.60
2023-04-12T13:26:58.416Z,0.70
2023-04-12T13:29:27.306Z,0.90
2023-04-12T13:31:55.933Z,0.82
2023-04-12T13:34:24.756Z,1.23
2023-04-12T13:36:54.120Z,1.60
2023-04-12T13:39:22.981Z,1.52
2023-04-12T13:41:51.889Z,1.83
2023-04-12T13:44:22.207Z,2.47
2023-04-12T13:46:52.130Z,1.90
2023-04-12T13:49:20.714Z,1.58
2023-04-12T13:51:49.365Z,1.08
2023-04-12T13:54:17.953Z,0.90
2023-04-12T13:56:46.580Z,1.00
2023-04-12T13:59:15.375Z,0.88
2023-04-12T14:01:45.568Z,0.93
2023-04-12T14:04:14.407Z,1.10
2023-04-12T14:06:43.063Z,1.33
2023-04-12T14:09:11.759Z,1.13
2023-04-12T14:11:50.063Z,0.85
2023-04-12T14:14:18.577Z,1.30
2023-04-12T14:16:48.682Z,1.10
2023-04-12T14:19:17.320Z,1.30
2023-04-12T14:21:45.885Z,1.90
2023-04-12T14:24:14.437Z,1.65
2023-04-12T14:26:44.292Z,1.50
2023-04-12T14:29:13.766Z,1.55
2023-04-12T14:31:42.564Z,1.30
2023-04-12T14:34:13.599Z,1.50
2023-04-12T14:36:42.189Z,1.40
2023-04-12T14:39:13.906Z,1.13
2023-04-12T14:41:43.427Z,1.58
2023-04-12T14:44:12.112Z,1.40
2023-04-12T14:46:41.003Z,1.80
2023-04-12T14:49:09.580Z,1.10
2023-04-12T14:51:39.601Z,1.25
2023-04-12T14:54:08.399Z,1.10
2023-04-12T14:56:44.489Z,0.93
2023-04-12T14:59:16.486Z,1.52
2023-04-12T15:01:45.112Z,0.82
2023-04-12T15:04:13.964Z,1.10
2023-04-12T15:06:45.178Z,1.40
2023-04-12T15:09:18.076Z,1.00
2023-04-12T15:11:47.234Z,0.80
2023-04-12T15:14:18.234Z,0.95
2023-04-12T15:16:49.406Z,1.30
2023-04-12T15:19:22.910Z,1.00
2023-04-12T15:21:55.526Z,1.08
2023-04-12T15:24:24.383Z,1.35
2023-04-12T15:26:54.343Z,1.10
2023-04-12T15:29:24.867Z,0.80
2023-04-12T15:31:56.711Z,1.58
2023-04-12T15:34:25.835Z,1.27
2023-04-12T15:36:56.418Z,1.27
2023-04-12T15:39:25.020Z,1.00
2023-04-12T15:41:53.937Z,0.95
2023-04-12T15:44:25.784Z,0.98
2023-04-12T15:47:07.916Z,1.65
2023-04-12T15:49:40.201Z,2.85
2023-04-12T15:52:10.280Z,2.22
2023-04-12T15:54:43.788Z,1.30
2023-04-12T15:57:12.880Z,1.65
2023-04-12T15:59:42.209Z,1.60
2023-04-12T16:02:11.137Z,2.00
2023-04-12T16:04:40.814Z,1.63
2023-04-12T16:07:11.088Z,1.20
2023-04-12T16:10:22.468Z,1.25
2023-04-12T16:12:52.051Z,1.35
2023-04-12T16:15:22.461Z,1.45
2023-04-12T16:17:53.501Z,1.98
2023-04-12T16:20:23.033Z,2.75
2023-04-12T16:22:56.110Z,1.95
2023-04-12T16:25:27.733Z,2.17
2023-04-12T16:27:56.630Z,1.83
2023-04-12T16:30:25.914Z,2.40
2023-04-12T16:32:54.466Z,2.47
2023-04-12T16:35:23.061Z,2.40
2023-04-12T16:37:53.031Z,2.63
2023-04-12T16:40:25.826Z,2.03
2023-04-12T16:42:55.459Z,2.13
2023-04-12T16:45:24.136Z,2.33
2023-04-12T16:47:55.115Z,3.90
2023-04-12T16:50:24.461Z,2.10
2023-04-12T16:52:54.922Z,3.25
2023-04-12T16:55:23.630Z,2.05
2023-04-12T16:57:58.216Z,3.00
2023-04-12T17:00:29.406Z,2.40
2023-04-12T17:02:59.142Z,2.70
2023-04-12T17:05:30.580Z,2.05
2023-04-12T17:08:00.828Z,2.28
2023-04-12T17:10:30.719Z,2.10
2023-04-12T17:12:59.528Z,2.05
2023-04-12T17:15:32.568Z,1.80
2023-04-12T17:18:06.892Z,1.40
2023-04-12T17:20:35.816Z,1.80
2023-04-12T17:23:10.413Z,1.67
2023-04-12T17:25:39.263Z,2.55
2023-04-12T17:28:09.688Z,1.17
2023-04-12T17:30:39.029Z,1.40
2023-04-12T17:33:08.217Z,1.65
2023-04-12T17:35:37.266Z,2.08
2023-04-12T17:38:07.405Z,1.85
2023-04-12T17:40:36.426Z,1.63
2023-04-12T17:43:05.178Z,1.85
2023-04-12T17:45:33.959Z,2.17
2023-04-12T17:48:02.734Z,2.63
2023-04-12T17:50:31.422Z,2.88
2023-04-12T17:53:00.257Z,2.65
2023-04-12T17:55:30.577Z,3.08
2023-04-12T17:57:59.370Z,2.88
2023-04-12T18:00:29.301Z,2.55
2023-04-12T18:02:59.192Z,2.60
2023-04-12T18:05:29.050Z,2.55
2023-04-12T18:07:58.526Z,2.83
2023-04-12T18:10:27.898Z,2.78
2023-04-12T18:12:57.919Z,2.38
2023-04-12T18:15:27.461Z,2.63
2023-04-12T18:17:58.424Z,2.58
2023-04-12T18:20:35.426Z,3.72
2023-04-12T18:23:04.108Z,3.65
2023-04-12T18:25:33.803Z,5.32
2023-04-12T18:28:04.157Z,4.03
2023-04-12T18:30:34.869Z,4.18
2023-04-12T18:33:04.178Z,3.95
2023-04-12T18:35:33.280Z,4.10
2023-04-12T18:38:02.851Z,4.28
2023-04-12T18:40:31.612Z,4.57
2023-04-12T18:43:03.413Z,4.65
2023-04-12T18:45:34.688Z,4.65
2023-04-12T18:48:04.567Z,4.63
2023-04-12T18:50:33.159Z,5.25
2023-04-12T18:53:02.011Z,4.38
2023-04-12T18:55:30.721Z,4.43
2023-04-12T18:58:01.622Z,4.38
2023-04-12T19:00:32.178Z,4.30
2023-04-12T19:03:02.588Z,4.75
2023-04-12T19:05:31.306Z,3.20
2023-04-12T19:08:07.037Z,3.53
2023-04-12T19:10:35.999Z,2.92
2023-04-12T19:13:05.653Z,2.55
2023-04-12T19:15:34.259Z,3.35
2023-04-12T19:18:04.259Z,3.05
2023-04-12T19:20:34.004Z,2.50
2023-04-12T19:23:03.814Z,2.75
2023-04-12T19:25:33.268Z,3.00
2023-04-12T19:28:02.740Z,2.80
2023-04-12T19:30:33.644Z,2.80
2023-04-12T19:33:03.847Z,2.75
2023-04-12T19:35:33.866Z,2.38
2023-04-12T19:38:03.821Z,2.50
2023-04-12T19:40:33.405Z,2.65
2023-04-12T19:43:01.951Z,2.55
2023-04-12T19:45:30.847Z,2.63
2023-04-12T19:47:59.659Z,2.05
2023-04-12T19:50:32.838Z,1.92
2023-04-12T19:53:01.337Z,3.10
2023-04-12T19:55:30.640Z,3.38
2023-04-12T19:58:00.726Z,2.58
2023-04-12T20:00:30.386Z,2.03
2023-04-12T20:02:59.559Z,2.30
2023-04-12T20:05:28.600Z,2.67
2023-04-12T20:07:58.659Z,2.92
2023-04-12T20:10:30.114Z,2.25
2023-04-12T20:12:58.714Z,2.92
2023-04-12T20:15:27.412Z,2.17
2023-04-12T20:17:56.999Z,2.20
2023-04-12T20:20:26.077Z,2.55
2023-04-12T20:22:57.340Z,2.58
2023-04-12T20:25:29.156Z,2.30
2023-04-12T20:28:01.676Z,1.95
2023-04-12T20:30:37.163Z,2.22
2023-04-12T20:33:07.162Z,2.17
2023-04-12T20:35:36.059Z,2.53
2023-04-12T20:38:04.686Z,2.50
2023-04-12T20:40:36.027Z,2.47
2023-04-12T20:43:06.225Z,3.38
2023-04-12T20:45:34.944Z,4.22
2023-04-12T20:48:03.511Z,3.55
2023-04-12T20:50:33.147Z,3.30
2023-04-12T20:53:01.421Z,2.75
2023-04-12T20:55:35.217Z,3.42
2023-04-12T20:58:06.924Z,3.17
2023-04-12T21:00:38.228Z,3.28
2023-04-12T21:03:09.077Z,4.05
2023-04-12T21:05:40.087Z,4.28
2023-04-12T21:08:09.240Z,2.67
2023-04-12T21:10:39.767Z,2.40
2023-04-12T21:13:22.239Z,2.30
2023-04-12T21:15:52.659Z,1.65
2023-04-12T21:18:25.948Z,3.28
2023-04-12T21:20:55.801Z,2.35
2023-04-12T21:23:30.413Z,2.00
2023-04-12T21:26:03.004Z,2.53
2023-04-12T21:28:32.981Z,2.72
2023-04-12T21:31:04.274Z,1.90
2023-04-12T21:33:35.231Z,1.85
2023-04-12T21:36:03.834Z,2.10
2023-04-12T21:38:32.440Z,2.58
2023-04-12T21:41:07.282Z,1.95
2023-04-12T21:43:37.258Z,1.95
2023-04-12T21:46:09.325Z,2.13
2023-04-12T21:48:41.990Z,2.28
2023-04-12T21:51:10.456Z,1.70
2023-04-12T21:53:38.920Z,1.45
2023-04-12T21:56:09.237Z,1.60
2023-04-12T21:58:40.418Z,1.67
2023-04-12T22:01:10.508Z,1.40
2023-04-12T22:03:44.485Z,2.17
2023-04-12T22:06:20.355Z,1.92
2023-04-12T22:08:50.075Z,2.13
2023-04-12T22:11:19.726Z,1.85
2023-04-12T22:13:54.553Z,1.88
2023-04-12T22:16:23.391Z,1.77
2023-04-12T22:18:53.491Z,2.17
2023-04-12T22:21:23.047Z,1.77
2023-04-12T22:23:51.585Z,2.00
2023-04-12T22:26:19.966Z,2.30
2023-04-12T22:28:50.287Z,2.20
2023-04-12T22:31:23.134Z,2.47
2023-04-12T22:33:56.932Z,2.45
2023-04-12T22:36:29.361Z,1.92
2023-04-12T22:38:58.444Z,2.30
2023-04-12T22:41:28.736Z,2.13
2023-04-12T22:44:03.245Z,2.22
2023-04-12T22:46:33.449Z,2.33
2023-04-12T22:49:03.509Z,2.60
2023-04-12T22:51:32.444Z,2.00
2023-04-12T22:54:02.908Z,1.95
2023-04-12T22:56:31.534Z,2.40
2023-04-12T22:59:01.022Z,2.00
2023-04-12T23:01:29.901Z,2.60
2023-04-12T23:04:03.405Z,2.92
2023-04-12T23:06:32.855Z,2.80
2023-04-12T23:09:01.688Z,2.90
2023-04-12T23:11:31.403Z,2.88
2023-04-12T23:14:00.445Z,3.35
2023-04-12T23:16:29.914Z,2.58
2023-04-12T23:19:01.906Z,2.28
2023-04-12T23:21:30.707Z,2.50
2023-04-12T23:23:59.390Z,2.63
2023-04-12T23:26:29.373Z,2.53
2023-04-12T23:29:01.840Z,2.05
2023-04-12T23:31:32.519Z,2.90
2023-04-12T23:34:06.459Z,2.85
2023-04-12T23:36:36.428Z,1.92
2023-04-12T23:39:09.377Z,3.00
2023-04-12T23:41:41.084Z,2.15
2023-04-12T23:44:09.728Z,1.90
2023-04-12T23:46:39.262Z,2.50
2023-04-12T23:49:10.376Z,2.10
2023-04-12T23:51:42.812Z,2.38
2023-04-12T23:54:11.345Z,2.60
2023-04-12T23:56:39.861Z,2.53
2023-04-12T23:59:08.424Z,2.55
